sensor_id;sensor_type;location;lat;lon;timestamp;temperature;humidity
38265;DHT22;24062;47.480;8.768;2023-08-07T00:00:42;23.20;60.80
38265;DHT22;24062;47.480;8.768;2023-08-07T00:03:09;23.20;60.90
38265;DHT22;24062;47.480;8.768;2023-08-07T00:05:44;23.20;60.90
38265;DHT22;24062;47.480;8.768;2023-08-07T00:08:13;23.20;60.90
38265;DHT22;24062;47.480;8.768;2023-08-07T00:10:40;23.20;60.90
38265;DHT22;24062;47.480;8.768;2023-08-07T00:13:07;23.20;60.90
38265;DHT22;24062;47.480;8.768;2023-08-07T00:15:34;23.20;61.00
38265;DHT22;24062;47.480;8.768;2023-08-07T00:18:00;23.20;61.00
38265;DHT22;24062;47.480;8.768;2023-08-07T00:20:27;23.20;61.00
38265;DHT22;24062;47.480;8.768;2023-08-07T00:22:54;23.20;61.00
38265;DHT22;24062;47.480;8.768;2023-08-07T00:25:23;23.20;61.00
38265;DHT22;24062;47.480;8.768;2023-08-07T00:27:49;23.20;61.00
38265;DHT22;24062;47.480;8.768;2023-08-07T00:30:16;23.20;61.00
38265;DHT22;24062;47.480;8.768;2023-08-07T00:32:43;23.20;61.00
38265;DHT22;24062;47.480;8.768;2023-08-07T00:35:10;23.20;61.00
38265;DHT22;24062;47.480;8.768;2023-08-07T00:37:37;23.10;60.90
38265;DHT22;24062;47.480;8.768;2023-08-07T00:40:05;23.20;61.00
38265;DHT22;24062;47.480;8.768;2023-08-07T00:42:34;23.10;60.90
38265;DHT22;24062;47.480;8.768;2023-08-07T00:45:00;23.10;60.90
38265;DHT22;24062;47.480;8.768;2023-08-07T00:47:28;23.10;61.00
38265;DHT22;24062;47.480;8.768;2023-08-07T00:49:56;23.10;61.00
38265;DHT22;24062;47.480;8.768;2023-08-07T00:52:23;23.10;61.00
38265;DHT22;24062;47.480;8.768;2023-08-07T00:54:50;23.10;61.10
38265;DHT22;24062;47.480;8.768;2023-08-07T00:57:17;23.10;61.10
38265;DHT22;24062;47.480;8.768;2023-08-07T00:59:49;23.10;61.00
38265;DHT22;24062;47.480;8.768;2023-08-07T01:02:16;23.00;61.00
38265;DHT22;24062;47.480;8.768;2023-08-07T01:04:43;23.00;61.00
38265;DHT22;24062;47.480;8.768;2023-08-07T01:07:11;23.10;61.10
38265;DHT22;24062;47.480;8.768;2023-08-07T01:09:38;23.00;61.00
38265;DHT22;24062;47.480;8.768;2023-08-07T01:12:13;23.10;61.10
38265;DHT22;24062;47.480;8.768;2023-08-07T01:14:51;23.00;61.00
38265;DHT22;24062;47.480;8.768;2023-08-07T01:17:21;23.00;61.00
38265;DHT22;24062;47.480;8.768;2023-08-07T01:19:50;23.00;61.10
38265;DHT22;24062;47.480;8.768;2023-08-07T01:22:19;23.00;61.10
38265;DHT22;24062;47.480;8.768;2023-08-07T01:24:47;23.00;61.10
38265;DHT22;24062;47.480;8.768;2023-08-07T01:27:30;23.00;61.10
38265;DHT22;24062;47.480;8.768;2023-08-07T01:30:12;23.00;61.00
38265;DHT22;24062;47.480;8.768;2023-08-07T01:32:47;23.00;61.00
38265;DHT22;24062;47.480;8.768;2023-08-07T01:35:16;23.00;61.00
38265;DHT22;24062;47.480;8.768;2023-08-07T01:37:45;23.00;61.00
38265;DHT22;24062;47.480;8.768;2023-08-07T01:40:13;23.00;61.00
38265;DHT22;24062;47.480;8.768;2023-08-07T01:42:41;23.00;61.00
38265;DHT22;24062;47.480;8.768;2023-08-07T01:45:08;22.90;60.90
38265;DHT22;24062;47.480;8.768;2023-08-07T01:47:35;23.00;61.00
38265;DHT22;24062;47.480;8.768;2023-08-07T01:50:03;23.00;61.00
38265;DHT22;24062;47.480;8.768;2023-08-07T01:52:30;22.90;60.90
38265;DHT22;24062;47.480;8.768;2023-08-07T01:54:58;22.90;61.80
38265;DHT22;24062;47.480;8.768;2023-08-07T01:57:25;22.90;61.00
38265;DHT22;24062;47.480;8.768;2023-08-07T01:59:52;22.90;61.80
38265;DHT22;24062;47.480;8.768;2023-08-07T02:02:19;22.90;61.00
38265;DHT22;24062;47.480;8.768;2023-08-07T02:04:46;22.90;61.00
38265;DHT22;24062;47.480;8.768;2023-08-07T02:07:12;22.90;61.00
38265;DHT22;24062;47.480;8.768;2023-08-07T02:09:39;22.90;61.10
38265;DHT22;24062;47.480;8.768;2023-08-07T02:12:08;22.90;61.10
38265;DHT22;24062;47.480;8.768;2023-08-07T02:14:35;22.90;61.10
38265;DHT22;24062;47.480;8.768;2023-08-07T02:17:02;22.90;61.10
38265;DHT22;24062;47.480;8.768;2023-08-07T02:19:29;22.80;61.10
38265;DHT22;24062;47.480;8.768;2023-08-07T02:21:56;22.90;61.10
38265;DHT22;24062;47.480;8.768;2023-08-07T02:24:23;22.90;61.10
38265;DHT22;24062;47.480;8.768;2023-08-07T02:26:50;22.90;61.10
38265;DHT22;24062;47.480;8.768;2023-08-07T02:29:18;22.90;61.10
38265;DHT22;24062;47.480;8.768;2023-08-07T02:31:45;22.90;61.00
38265;DHT22;24062;47.480;8.768;2023-08-07T02:34:12;22.90;61.10
38265;DHT22;24062;47.480;8.768;2023-08-07T02:36:39;22.90;61.10
38265;DHT22;24062;47.480;8.768;2023-08-07T02:39:06;22.90;61.10
38265;DHT22;24062;47.480;8.768;2023-08-07T02:41:33;22.80;61.00
38265;DHT22;24062;47.480;8.768;2023-08-07T02:44:00;22.80;61.00
38265;DHT22;24062;47.480;8.768;2023-08-07T02:46:28;22.80;61.00
38265;DHT22;24062;47.480;8.768;2023-08-07T02:48:55;22.80;61.00
38265;DHT22;24062;47.480;8.768;2023-08-07T02:51:22;22.80;61.00
38265;DHT22;24062;47.480;8.768;2023-08-07T02:53:49;22.80;61.00
38265;DHT22;24062;47.480;8.768;2023-08-07T02:56:16;22.80;61.00
38265;DHT22;24062;47.480;8.768;2023-08-07T02:58:43;22.80;61.00
38265;DHT22;24062;47.480;8.768;2023-08-07T03:01:10;22.80;61.00
38265;DHT22;24062;47.480;8.768;2023-08-07T03:03:39;22.80;61.00
38265;DHT22;24062;47.480;8.768;2023-08-07T03:06:06;22.80;61.00
38265;DHT22;24062;47.480;8.768;2023-08-07T03:08:33;22.70;61.00
38265;DHT22;24062;47.480;8.768;2023-08-07T03:11:00;22.70;61.00
38265;DHT22;24062;47.480;8.768;2023-08-07T03:13:27;22.70;61.00
38265;DHT22;24062;47.480;8.768;2023-08-07T03:15:59;22.70;61.10
38265;DHT22;24062;47.480;8.768;2023-08-07T03:18:26;22.70;61.10
38265;DHT22;24062;47.480;8.768;2023-08-07T03:20:55;22.80;61.00
38265;DHT22;24062;47.480;8.768;2023-08-07T03:23:22;22.80;60.90
38265;DHT22;24062;47.480;8.768;2023-08-07T03:25:49;22.90;60.90
38265;DHT22;24062;47.480;8.768;2023-08-07T03:28:16;22.90;60.80
38265;DHT22;24062;47.480;8.768;2023-08-07T03:30:43;22.90;60.70
38265;DHT22;24062;47.480;8.768;2023-08-07T03:33:11;22.90;60.60
38265;DHT22;24062;47.480;8.768;2023-08-07T03:35:38;22.90;60.50
38265;DHT22;24062;47.480;8.768;2023-08-07T03:38:06;22.90;60.40
38265;DHT22;24062;47.480;8.768;2023-08-07T03:40:33;22.90;60.30
38265;DHT22;24062;47.480;8.768;2023-08-07T03:43:00;22.90;60.40
38265;DHT22;24062;47.480;8.768;2023-08-07T03:45:27;22.90;60.40
38265;DHT22;24062;47.480;8.768;2023-08-07T03:47:54;22.90;60.30
38265;DHT22;24062;47.480;8.768;2023-08-07T03:50:21;22.90;60.40
38265;DHT22;24062;47.480;8.768;2023-08-07T03:52:48;22.90;60.20
38265;DHT22;24062;47.480;8.768;2023-08-07T03:55:16;22.90;60.20
38265;DHT22;24062;47.480;8.768;2023-08-07T03:57:43;22.90;60.20
38265;DHT22;24062;47.480;8.768;2023-08-07T04:00:11;22.90;60.30
38265;DHT22;24062;47.480;8.768;2023-08-07T04:02:39;22.90;60.30
38265;DHT22;24062;47.480;8.768;2023-08-07T04:05:06;22.90;60.20
38265;DHT22;24062;47.480;8.768;2023-08-07T04:07:33;22.90;60.10
38265;DHT22;24062;47.480;8.768;2023-08-07T04:10:00;22.90;60.00
38265;DHT22;24062;47.480;8.768;2023-08-07T04:12:29;22.90;59.90
38265;DHT22;24062;47.480;8.768;2023-08-07T04:14:56;22.90;59.70
38265;DHT22;24062;47.480;8.768;2023-08-07T04:17:23;22.90;59.60
38265;DHT22;24062;47.480;8.768;2023-08-07T04:19:50;22.90;59.70
38265;DHT22;24062;47.480;8.768;2023-08-07T04:22:16;22.90;59.80
38265;DHT22;24062;47.480;8.768;2023-08-07T04:24:43;22.90;59.80
38265;DHT22;24062;47.480;8.768;2023-08-07T04:27:10;22.90;59.70
38265;DHT22;24062;47.480;8.768;2023-08-07T04:29:39;22.90;59.70
38265;DHT22;24062;47.480;8.768;2023-08-07T04:32:06;23.00;59.80
38265;DHT22;24062;47.480;8.768;2023-08-07T04:34:33;23.00;59.70
38265;DHT22;24062;47.480;8.768;2023-08-07T04:37:01;23.00;59.80
38265;DHT22;24062;47.480;8.768;2023-08-07T04:39:28;23.00;59.80
38265;DHT22;24062;47.480;8.768;2023-08-07T04:41:56;23.00;59.70
38265;DHT22;24062;47.480;8.768;2023-08-07T04:44:22;23.00;59.70
38265;DHT22;24062;47.480;8.768;2023-08-07T04:46:51;22.90;59.60
38265;DHT22;24062;47.480;8.768;2023-08-07T04:49:18;23.00;59.70
38265;DHT22;24062;47.480;8.768;2023-08-07T04:51:45;23.00;59.70
38265;DHT22;24062;47.480;8.768;2023-08-07T04:54:12;22.90;59.60
38265;DHT22;24062;47.480;8.768;2023-08-07T04:56:39;22.90;59.70
38265;DHT22;24062;47.480;8.768;2023-08-07T04:59:07;22.90;59.60
38265;DHT22;24062;47.480;8.768;2023-08-07T05:01:34;23.00;59.70
38265;DHT22;24062;47.480;8.768;2023-08-07T05:04:03;22.90;59.60
38265;DHT22;24062;47.480;8.768;2023-08-07T05:06:30;23.00;59.70
38265;DHT22;24062;47.480;8.768;2023-08-07T05:08:57;23.00;59.70
38265;DHT22;24062;47.480;8.768;2023-08-07T05:11:24;23.00;59.60
38265;DHT22;24062;47.480;8.768;2023-08-07T05:13:51;23.00;59.60
38265;DHT22;24062;47.480;8.768;2023-08-07T05:16:18;23.00;59.60
38265;DHT22;24062;47.480;8.768;2023-08-07T05:18:45;23.00;59.50
38265;DHT22;24062;47.480;8.768;2023-08-07T05:21:13;23.00;59.50
38265;DHT22;24062;47.480;8.768;2023-08-07T05:23:40;23.10;59.60
38265;DHT22;24062;47.480;8.768;2023-08-07T05:26:07;23.00;59.50
38265;DHT22;24062;47.480;8.768;2023-08-07T05:28:34;23.00;59.40
38265;DHT22;24062;47.480;8.768;2023-08-07T05:31:01;23.00;59.30
38265;DHT22;24062;47.480;8.768;2023-08-07T05:33:28;23.10;59.40
38265;DHT22;24062;47.480;8.768;2023-08-07T05:35:55;23.10;59.40
38265;DHT22;24062;47.480;8.768;2023-08-07T05:38:23;23.00;59.30
38265;DHT22;24062;47.480;8.768;2023-08-07T05:40:50;23.10;59.30
38265;DHT22;24062;47.480;8.768;2023-08-07T05:43:17;23.10;59.40
38265;DHT22;24062;47.480;8.768;2023-08-07T05:45:44;23.10;59.40
38265;DHT22;24062;47.480;8.768;2023-08-07T05:48:12;23.10;59.20
38265;DHT22;24062;47.480;8.768;2023-08-07T05:50:39;23.10;59.20
38265;DHT22;24062;47.480;8.768;2023-08-07T05:53:05;23.10;59.20
38265;DHT22;24062;47.480;8.768;2023-08-07T05:55:34;23.10;59.10
38265;DHT22;24062;47.480;8.768;2023-08-07T05:58:01;23.10;59.10
38265;DHT22;24062;47.480;8.768;2023-08-07T06:00:28;23.20;59.10
38265;DHT22;24062;47.480;8.768;2023-08-07T06:02:55;23.20;58.90
38265;DHT22;24062;47.480;8.768;2023-08-07T06:05:22;23.20;58.90
38265;DHT22;24062;47.480;8.768;2023-08-07T06:07:50;23.20;58.90
38265;DHT22;24062;47.480;8.768;2023-08-07T06:10:17;23.20;58.90
38265;DHT22;24062;47.480;8.768;2023-08-07T06:12:45;23.20;58.90
38265;DHT22;24062;47.480;8.768;2023-08-07T06:15:12;23.20;58.90
38265;DHT22;24062;47.480;8.768;2023-08-07T06:17:39;23.20;58.80
38265;DHT22;24062;47.480;8.768;2023-08-07T06:20:07;23.20;58.90
38265;DHT22;24062;47.480;8.768;2023-08-07T06:22:37;23.20;59.00
38265;DHT22;24062;47.480;8.768;2023-08-07T06:25:04;23.20;59.00
38265;DHT22;24062;47.480;8.768;2023-08-07T06:27:32;23.10;58.90
38265;DHT22;24062;47.480;8.768;2023-08-07T06:30:00;23.20;58.90
38265;DHT22;24062;47.480;8.768;2023-08-07T06:32:28;23.20;58.90
38265;DHT22;24062;47.480;8.768;2023-08-07T06:34:55;23.20;58.90
38265;DHT22;24062;47.480;8.768;2023-08-07T06:37:22;23.20;58.90
38265;DHT22;24062;47.480;8.768;2023-08-07T06:39:49;23.20;58.90
38265;DHT22;24062;47.480;8.768;2023-08-07T06:42:16;23.20;58.90
38265;DHT22;24062;47.480;8.768;2023-08-07T06:44:43;23.20;59.00
38265;DHT22;24062;47.480;8.768;2023-08-07T06:47:11;23.20;58.90
38265;DHT22;24062;47.480;8.768;2023-08-07T06:49:38;23.20;58.90
38265;DHT22;24062;47.480;8.768;2023-08-07T06:52:06;23.20;58.90
38265;DHT22;24062;47.480;8.768;2023-08-07T06:54:32;23.20;58.90
38265;DHT22;24062;47.480;8.768;2023-08-07T06:56:59;23.20;58.80
38265;DHT22;24062;47.480;8.768;2023-08-07T06:59:26;23.20;58.70
38265;DHT22;24062;47.480;8.768;2023-08-07T07:01:53;23.20;58.60
38265;DHT22;24062;47.480;8.768;2023-08-07T07:04:21;23.20;58.70
38265;DHT22;24062;47.480;8.768;2023-08-07T07:06:49;23.20;58.60
38265;DHT22;24062;47.480;8.768;2023-08-07T07:09:16;23.20;58.60
38265;DHT22;24062;47.480;8.768;2023-08-07T07:11:43;23.20;58.70
38265;DHT22;24062;47.480;8.768;2023-08-07T07:14:10;23.20;58.70
38265;DHT22;24062;47.480;8.768;2023-08-07T07:16:37;23.20;58.60
38265;DHT22;24062;47.480;8.768;2023-08-07T07:19:04;23.20;58.50
38265;DHT22;24062;47.480;8.768;2023-08-07T07:21:34;23.20;58.50
38265;DHT22;24062;47.480;8.768;2023-08-07T07:24:01;23.20;58.50
38265;DHT22;24062;47.480;8.768;2023-08-07T07:26:28;23.20;58.60
38265;DHT22;24062;47.480;8.768;2023-08-07T07:28:55;23.20;58.60
38265;DHT22;24062;47.480;8.768;2023-08-07T07:31:22;23.20;58.60
38265;DHT22;24062;47.480;8.768;2023-08-07T07:33:49;23.20;58.60
38265;DHT22;24062;47.480;8.768;2023-08-07T07:36:16;23.20;58.60
38265;DHT22;24062;47.480;8.768;2023-08-07T07:38:46;23.20;58.70
38265;DHT22;24062;47.480;8.768;2023-08-07T07:41:14;23.20;58.70
38265;DHT22;24062;47.480;8.768;2023-08-07T07:43:41;23.30;58.70
38265;DHT22;24062;47.480;8.768;2023-08-07T07:46:08;23.20;58.60
38265;DHT22;24062;47.480;8.768;2023-08-07T07:48:35;23.20;58.60
38265;DHT22;24062;47.480;8.768;2023-08-07T07:51:03;23.20;58.60
38265;DHT22;24062;47.480;8.768;2023-08-07T07:53:30;23.20;58.50
38265;DHT22;24062;47.480;8.768;2023-08-07T07:55:59;23.20;58.50
38265;DHT22;24062;47.480;8.768;2023-08-07T07:58:25;23.20;58.50
38265;DHT22;24062;47.480;8.768;2023-08-07T08:00:52;23.30;58.60
38265;DHT22;24062;47.480;8.768;2023-08-07T08:03:20;23.20;58.50
38265;DHT22;24062;47.480;8.768;2023-08-07T08:05:50;23.20;58.40
38265;DHT22;24062;47.480;8.768;2023-08-07T08:08:17;23.20;58.50
38265;DHT22;24062;47.480;8.768;2023-08-07T08:10:44;23.20;58.50
38265;DHT22;24062;47.480;8.768;2023-08-07T08:13:14;23.20;58.40
38265;DHT22;24062;47.480;8.768;2023-08-07T08:15:42;23.20;58.50
38265;DHT22;24062;47.480;8.768;2023-08-07T08:18:09;23.20;58.50
38265;DHT22;24062;47.480;8.768;2023-08-07T08:20:36;23.30;58.60
38265;DHT22;24062;47.480;8.768;2023-08-07T08:23:03;23.30;58.50
38265;DHT22;24062;47.480;8.768;2023-08-07T08:25:30;23.30;58.50
38265;DHT22;24062;47.480;8.768;2023-08-07T08:27:58;23.30;58.50
38265;DHT22;24062;47.480;8.768;2023-08-07T08:30:27;23.30;58.50
38265;DHT22;24062;47.480;8.768;2023-08-07T08:32:54;23.30;58.40
38265;DHT22;24062;47.480;8.768;2023-08-07T08:35:21;23.30;58.40
38265;DHT22;24062;47.480;8.768;2023-08-07T08:37:48;23.30;58.40
38265;DHT22;24062;47.480;8.768;2023-08-07T08:40:15;23.30;58.40
38265;DHT22;24062;47.480;8.768;2023-08-07T08:42:45;23.30;58.40
38265;DHT22;24062;47.480;8.768;2023-08-07T08:45:13;23.30;58.50
38265;DHT22;24062;47.480;8.768;2023-08-07T08:47:42;23.30;58.50
38265;DHT22;24062;47.480;8.768;2023-08-07T08:50:12;23.30;58.40
38265;DHT22;24062;47.480;8.768;2023-08-07T08:52:42;23.40;58.50
38265;DHT22;24062;47.480;8.768;2023-08-07T08:55:10;23.40;58.50
38265;DHT22;24062;47.480;8.768;2023-08-07T08:57:39;23.40;58.60
38265;DHT22;24062;47.480;8.768;2023-08-07T09:00:08;23.50;58.60
38265;DHT22;24062;47.480;8.768;2023-08-07T09:02:45;23.50;58.50
38265;DHT22;24062;47.480;8.768;2023-08-07T09:05:14;23.60;58.50
38265;DHT22;24062;47.480;8.768;2023-08-07T09:07:41;23.60;58.30
38265;DHT22;24062;47.480;8.768;2023-08-07T09:10:09;23.60;58.30
38265;DHT22;24062;47.480;8.768;2023-08-07T09:12:40;23.70;58.30
38265;DHT22;24062;47.480;8.768;2023-08-07T09:15:08;23.80;58.30
38265;DHT22;24062;47.480;8.768;2023-08-07T09:17:39;23.90;58.30
38265;DHT22;24062;47.480;8.768;2023-08-07T09:20:09;24.00;58.20
38265;DHT22;24062;47.480;8.768;2023-08-07T09:22:38;24.00;57.90
38265;DHT22;24062;47.480;8.768;2023-08-07T09:25:07;24.20;58.00
38265;DHT22;24062;47.480;8.768;2023-08-07T09:27:36;24.10;57.90
38265;DHT22;24062;47.480;8.768;2023-08-07T09:30:06;24.10;57.80
38265;DHT22;24062;47.480;8.768;2023-08-07T09:32:35;24.10;57.80
38265;DHT22;24062;47.480;8.768;2023-08-07T09:35:03;24.10;57.70
38265;DHT22;24062;47.480;8.768;2023-08-07T09:37:32;24.20;57.70
38265;DHT22;24062;47.480;8.768;2023-08-07T09:40:00;24.20;57.80
38265;DHT22;24062;47.480;8.768;2023-08-07T09:42:31;24.20;57.80
38265;DHT22;24062;47.480;8.768;2023-08-07T09:45:00;24.30;57.80
38265;DHT22;24062;47.480;8.768;2023-08-07T09:47:27;24.30;57.80
38265;DHT22;24062;47.480;8.768;2023-08-07T09:49:55;24.30;57.90
38265;DHT22;24062;47.480;8.768;2023-08-07T09:52:24;24.30;57.80
38265;DHT22;24062;47.480;8.768;2023-08-07T09:54:55;24.40;57.90
38265;DHT22;24062;47.480;8.768;2023-08-07T09:57:22;24.40;57.90
38265;DHT22;24062;47.480;8.768;2023-08-07T09:59:50;24.40;57.90
38265;DHT22;24062;47.480;8.768;2023-08-07T10:02:17;24.40;57.80
38265;DHT22;24062;47.480;8.768;2023-08-07T10:04:46;24.40;57.80
38265;DHT22;24062;47.480;8.768;2023-08-07T10:07:14;24.40;57.90
38265;DHT22;24062;47.480;8.768;2023-08-07T10:09:42;24.40;57.90
38265;DHT22;24062;47.480;8.768;2023-08-07T10:12:11;24.40;57.70
38265;DHT22;24062;47.480;8.768;2023-08-07T10:14:39;24.40;57.80
38265;DHT22;24062;47.480;8.768;2023-08-07T10:17:07;24.50;57.80
38265;DHT22;24062;47.480;8.768;2023-08-07T10:19:34;24.50;57.80
38265;DHT22;24062;47.480;8.768;2023-08-07T10:22:04;24.50;57.80
38265;DHT22;24062;47.480;8.768;2023-08-07T10:24:34;24.50;57.70
38265;DHT22;24062;47.480;8.768;2023-08-07T10:27:02;24.50;57.80
38265;DHT22;24062;47.480;8.768;2023-08-07T10:29:31;24.50;57.80
38265;DHT22;24062;47.480;8.768;2023-08-07T10:31:59;24.40;57.70
38265;DHT22;24062;47.480;8.768;2023-08-07T10:34:28;24.30;57.80
38265;DHT22;24062;47.480;8.768;2023-08-07T10:36:56;24.30;57.90
38265;DHT22;24062;47.480;8.768;2023-08-07T10:39:23;24.30;57.90
38265;DHT22;24062;47.480;8.768;2023-08-07T10:41:53;24.20;57.90
38265;DHT22;24062;47.480;8.768;2023-08-07T10:44:21;24.20;57.90
38265;DHT22;24062;47.480;8.768;2023-08-07T10:46:52;24.30;58.20
38265;DHT22;24062;47.480;8.768;2023-08-07T10:49:33;24.30;58.20
38265;DHT22;24062;47.480;8.768;2023-08-07T10:52:02;24.30;58.20
38265;DHT22;24062;47.480;8.768;2023-08-07T10:54:29;24.30;58.20
38265;DHT22;24062;47.480;8.768;2023-08-07T10:56:56;24.20;58.00
38265;DHT22;24062;47.480;8.768;2023-08-07T10:59:29;24.30;58.10
38265;DHT22;24062;47.480;8.768;2023-08-07T11:01:58;24.30;58.40
38265;DHT22;24062;47.480;8.768;2023-08-07T11:04:26;24.30;58.20
38265;DHT22;24062;47.480;8.768;2023-08-07T11:06:53;24.30;58.30
38265;DHT22;24062;47.480;8.768;2023-08-07T11:09:20;24.30;58.30
38265;DHT22;24062;47.480;8.768;2023-08-07T11:11:48;24.30;58.40
38265;DHT22;24062;47.480;8.768;2023-08-07T11:14:16;24.30;58.40
38265;DHT22;24062;47.480;8.768;2023-08-07T11:16:44;24.30;58.40
38265;DHT22;24062;47.480;8.768;2023-08-07T11:19:14;24.30;58.40
38265;DHT22;24062;47.480;8.768;2023-08-07T11:21:42;24.30;58.40
38265;DHT22;24062;47.480;8.768;2023-08-07T11:24:12;24.30;58.30
38265;DHT22;24062;47.480;8.768;2023-08-07T11:26:39;24.40;58.40
38265;DHT22;24062;47.480;8.768;2023-08-07T11:29:06;24.40;58.30
38265;DHT22;24062;47.480;8.768;2023-08-07T11:31:33;24.40;58.10
38265;DHT22;24062;47.480;8.768;2023-08-07T11:34:00;24.50;58.00
38265;DHT22;24062;47.480;8.768;2023-08-07T11:36:30;24.50;57.90
38265;DHT22;24062;47.480;8.768;2023-08-07T11:38:59;24.50;57.80
38265;DHT22;24062;47.480;8.768;2023-08-07T11:41:26;24.50;57.80
38265;DHT22;24062;47.480;8.768;2023-08-07T11:43:53;24.50;57.80
38265;DHT22;24062;47.480;8.768;2023-08-07T11:46:21;24.50;57.80
38265;DHT22;24062;47.480;8.768;2023-08-07T11:48:48;24.40;57.70
38265;DHT22;24062;47.480;8.768;2023-08-07T11:51:16;24.40;57.70
38265;DHT22;24062;47.480;8.768;2023-08-07T11:53:44;24.50;57.90
38265;DHT22;24062;47.480;8.768;2023-08-07T11:56:12;24.50;57.80
38265;DHT22;24062;47.480;8.768;2023-08-07T11:58:42;24.50;57.80
38265;DHT22;24062;47.480;8.768;2023-08-07T12:01:13;24.60;57.90
38265;DHT22;24062;47.480;8.768;2023-08-07T12:03:42;24.60;57.90
38265;DHT22;24062;47.480;8.768;2023-08-07T12:06:10;24.60;57.70
38265;DHT22;24062;47.480;8.768;2023-08-07T12:08:38;24.70;57.70
38265;DHT22;24062;47.480;8.768;2023-08-07T12:11:07;24.70;57.80
38265;DHT22;24062;47.480;8.768;2023-08-07T12:13:37;24.70;57.70
38265;DHT22;24062;47.480;8.768;2023-08-07T12:16:05;24.70;57.70
38265;DHT22;24062;47.480;8.768;2023-08-07T12:18:32;24.80;57.80
38265;DHT22;24062;47.480;8.768;2023-08-07T12:21:01;24.80;58.40
38265;DHT22;24062;47.480;8.768;2023-08-07T12:23:29;24.80;57.70
38265;DHT22;24062;47.480;8.768;2023-08-07T12:25:56;24.80;57.70
38265;DHT22;24062;47.480;8.768;2023-08-07T12:28:24;24.80;57.60
38265;DHT22;24062;47.480;8.768;2023-08-07T12:30:51;24.80;57.70
38265;DHT22;24062;47.480;8.768;2023-08-07T12:33:19;24.80;57.70
38265;DHT22;24062;47.480;8.768;2023-08-07T12:35:46;24.80;57.70
38265;DHT22;24062;47.480;8.768;2023-08-07T12:38:13;24.90;57.70
38265;DHT22;24062;47.480;8.768;2023-08-07T12:40:40;24.90;57.70
38265;DHT22;24062;47.480;8.768;2023-08-07T12:43:07;24.90;57.50
38265;DHT22;24062;47.480;8.768;2023-08-07T12:45:36;25.00;57.50
38265;DHT22;24062;47.480;8.768;2023-08-07T12:48:03;25.00;57.50
38265;DHT22;24062;47.480;8.768;2023-08-07T12:50:31;25.00;57.40
38265;DHT22;24062;47.480;8.768;2023-08-07T12:52:58;25.00;57.50
38265;DHT22;24062;47.480;8.768;2023-08-07T12:55:25;25.00;57.50
38265;DHT22;24062;47.480;8.768;2023-08-07T12:57:52;25.10;57.40
38265;DHT22;24062;47.480;8.768;2023-08-07T13:00:19;25.10;57.30
38265;DHT22;24062;47.480;8.768;2023-08-07T13:02:49;25.10;57.20
38265;DHT22;24062;47.480;8.768;2023-08-07T13:05:17;25.10;57.30
38265;DHT22;24062;47.480;8.768;2023-08-07T13:07:45;25.10;57.30
38265;DHT22;24062;47.480;8.768;2023-08-07T13:10:14;24.90;57.30
38265;DHT22;24062;47.480;8.768;2023-08-07T13:12:43;25.00;57.50
38265;DHT22;24062;47.480;8.768;2023-08-07T13:15:12;24.90;57.50
38265;DHT22;24062;47.480;8.768;2023-08-07T13:17:40;24.90;57.60
38265;DHT22;24062;47.480;8.768;2023-08-07T13:20:10;24.90;57.60
38265;DHT22;24062;47.480;8.768;2023-08-07T13:22:39;25.00;57.60
38265;DHT22;24062;47.480;8.768;2023-08-07T13:25:06;25.00;57.60
38265;DHT22;24062;47.480;8.768;2023-08-07T13:27:34;25.00;57.40
38265;DHT22;24062;47.480;8.768;2023-08-07T13:30:01;25.10;57.30
38265;DHT22;24062;47.480;8.768;2023-08-07T13:32:28;25.10;57.20
38265;DHT22;24062;47.480;8.768;2023-08-07T13:34:55;25.10;57.10
38265;DHT22;24062;47.480;8.768;2023-08-07T13:37:24;25.20;57.10
38265;DHT22;24062;47.480;8.768;2023-08-07T13:39:51;25.20;57.10
38265;DHT22;24062;47.480;8.768;2023-08-07T13:42:18;25.30;57.10
38265;DHT22;24062;47.480;8.768;2023-08-07T13:44:45;25.40;57.10
38265;DHT22;24062;47.480;8.768;2023-08-07T13:47:12;25.40;57.10
38265;DHT22;24062;47.480;8.768;2023-08-07T13:49:39;25.40;57.00
38265;DHT22;24062;47.480;8.768;2023-08-07T13:52:07;25.40;57.00
38265;DHT22;24062;47.480;8.768;2023-08-07T13:54:35;25.40;56.90
38265;DHT22;24062;47.480;8.768;2023-08-07T13:57:02;25.50;56.90
38265;DHT22;24062;47.480;8.768;2023-08-07T13:59:29;25.40;56.80
38265;DHT22;24062;47.480;8.768;2023-08-07T14:01:57;25.50;56.80
38265;DHT22;24062;47.480;8.768;2023-08-07T14:04:25;25.50;56.80
38265;DHT22;24062;47.480;8.768;2023-08-07T14:06:53;25.50;56.80
38265;DHT22;24062;47.480;8.768;2023-08-07T14:09:20;25.50;56.60
38265;DHT22;24062;47.480;8.768;2023-08-07T14:11:48;25.40;56.50
38265;DHT22;24062;47.480;8.768;2023-08-07T14:14:15;25.40;56.60
38265;DHT22;24062;47.480;8.768;2023-08-07T14:16:42;25.30;56.50
38265;DHT22;24062;47.480;8.768;2023-08-07T14:19:09;25.30;56.60
38265;DHT22;24062;47.480;8.768;2023-08-07T14:21:36;25.30;56.70
38265;DHT22;24062;47.480;8.768;2023-08-07T14:24:04;25.30;56.60
38265;DHT22;24062;47.480;8.768;2023-08-07T14:26:31;25.30;56.60
38265;DHT22;24062;47.480;8.768;2023-08-07T14:28:59;25.30;56.60
38265;DHT22;24062;47.480;8.768;2023-08-07T14:31:26;25.30;56.60
38265;DHT22;24062;47.480;8.768;2023-08-07T14:33:53;25.40;56.60
38265;DHT22;24062;47.480;8.768;2023-08-07T14:36:22;25.40;56.50
38265;DHT22;24062;47.480;8.768;2023-08-07T14:38:49;25.60;56.40
38265;DHT22;24062;47.480;8.768;2023-08-07T14:41:16;25.70;56.20
38265;DHT22;24062;47.480;8.768;2023-08-07T14:43:44;25.90;56.20
38265;DHT22;24062;47.480;8.768;2023-08-07T14:46:12;26.00;55.90
38265;DHT22;24062;47.480;8.768;2023-08-07T14:48:39;26.10;55.90
38265;DHT22;24062;47.480;8.768;2023-08-07T14:51:06;26.10;55.70
38265;DHT22;24062;47.480;8.768;2023-08-07T14:53:33;26.10;55.60
38265;DHT22;24062;47.480;8.768;2023-08-07T14:56:01;26.20;55.50
38265;DHT22;24062;47.480;8.768;2023-08-07T14:58:28;26.20;55.30
38265;DHT22;24062;47.480;8.768;2023-08-07T15:00:55;26.30;55.30
38265;DHT22;24062;47.480;8.768;2023-08-07T15:03:24;26.40;55.10
38265;DHT22;24062;47.480;8.768;2023-08-07T15:05:51;26.40;55.00
38265;DHT22;24062;47.480;8.768;2023-08-07T15:08:18;26.30;54.90
38265;DHT22;24062;47.480;8.768;2023-08-07T15:10:45;26.30;55.00
38265;DHT22;24062;47.480;8.768;2023-08-07T15:13:12;26.40;55.00
38265;DHT22;24062;47.480;8.768;2023-08-07T15:15:39;26.50;54.80
38265;DHT22;24062;47.480;8.768;2023-08-07T15:18:06;26.50;54.80
38265;DHT22;24062;47.480;8.768;2023-08-07T15:20:35;26.60;54.60
38265;DHT22;24062;47.480;8.768;2023-08-07T15:23:02;26.70;54.50
38265;DHT22;24062;47.480;8.768;2023-08-07T15:25:29;26.70;54.30
38265;DHT22;24062;47.480;8.768;2023-08-07T15:27:56;26.80;54.20
38265;DHT22;24062;47.480;8.768;2023-08-07T15:30:26;26.80;54.90
38265;DHT22;24062;47.480;8.768;2023-08-07T15:32:54;26.70;54.30